sensor_id;sensor_type;location;lat;lon;timestamp;pressure;altitude;pressure_sealevel;temperature
51149;BMP280;37210;50.058;8.688;2023-08-01T00:01:03;98962.91;;;19.71
51149;BMP280;37210;50.058;8.688;2023-08-01T00:03:31;98960.19;;;19.57
51149;BMP280;37210;50.058;8.688;2023-08-01T00:05:59;98934.19;;;19.64
51149;BMP280;37210;50.058;8.688;2023-08-01T00:08:26;98936.22;;;19.59
51149;BMP280;37210;50.058;8.688;2023-08-01T00:10:53;98909.22;;;19.52
51149;BMP280;37210;50.058;8.688;2023-08-01T00:13:21;98915.94;;;19.73
51149;BMP280;37210;50.058;8.688;2023-08-01T00:15:48;98931.00;;;19.73
51149;BMP280;37210;50.058;8.688;2023-08-01T00:18:17;98920.28;;;19.90
51149;BMP280;37210;50.058;8.688;2023-08-01T00:20:44;98915.00;;;19.59
51149;BMP280;37210;50.058;8.688;2023-08-01T00:23:11;98911.06;;;19.66
51149;BMP280;37210;50.058;8.688;2023-08-01T00:25:39;98884.91;;;19.44
51149;BMP280;37210;50.058;8.688;2023-08-01T00:28:06;98887.97;;;19.68
51149;BMP280;37210;50.058;8.688;2023-08-01T00:30:33;98871.69;;;19.74
51149;BMP280;37210;50.058;8.688;2023-08-01T00:33:01;98877.72;;;19.62
51149;BMP280;37210;50.058;8.688;2023-08-01T00:35:29;98866.22;;;19.77
51149;BMP280;37210;50.058;8.688;2023-08-01T00:37:57;98853.31;;;19.41
51149;BMP280;37210;50.058;8.688;2023-08-01T00:40:29;98851.56;;;19.40
51149;BMP280;37210;50.058;8.688;2023-08-01T00:42:57;98841.13;;;19.53
51149;BMP280;37210;50.058;8.688;2023-08-01T00:45:25;98846.16;;;19.57
51149;BMP280;37210;50.058;8.688;2023-08-01T00:47:54;98842.84;;;19.54
51149;BMP280;37210;50.058;8.688;2023-08-01T00:50:22;98840.13;;;19.40
51149;BMP280;37210;50.058;8.688;2023-08-01T00:52:52;98831.44;;;19.06
51149;BMP280;37210;50.058;8.688;2023-08-01T00:55:21;98824.31;;;19.23
51149;BMP280;37210;50.058;8.688;2023-08-01T00:57:49;98824.53;;;19.49
51149;BMP280;37210;50.058;8.688;2023-08-01T01:00:19;98821.84;;;19.35
51149;BMP280;37210;50.058;8.688;2023-08-01T01:02:46;98828.13;;;19.33
51149;BMP280;37210;50.058;8.688;2023-08-01T01:05:14;98824.06;;;19.27
51149;BMP280;37210;50.058;8.688;2023-08-01T01:07:43;98811.13;;;19.37
51149;BMP280;37210;50.058;8.688;2023-08-01T01:10:12;98812.22;;;19.33
51149;BMP280;37210;50.058;8.688;2023-08-01T01:12:39;98817.22;;;19.23
51149;BMP280;37210;50.058;8.688;2023-08-01T01:15:07;98811.81;;;19.25
51149;BMP280;37210;50.058;8.688;2023-08-01T01:17:35;98807.28;;;19.27
51149;BMP280;37210;50.058;8.688;2023-08-01T01:20:03;98797.97;;;19.35
51149;BMP280;37210;50.058;8.688;2023-08-01T01:22:33;98804.94;;;19.52
51149;BMP280;37210;50.058;8.688;2023-08-01T01:25:04;98802.44;;;19.64
51149;BMP280;37210;50.058;8.688;2023-08-01T01:27:35;98788.00;;;19.54
51149;BMP280;37210;50.058;8.688;2023-08-01T01:30:08;98777.84;;;19.47
51149;BMP280;37210;50.058;8.688;2023-08-01T01:32:36;98773.50;;;19.30
51149;BMP280;37210;50.058;8.688;2023-08-01T01:35:04;98766.72;;;19.10
51149;BMP280;37210;50.058;8.688;2023-08-01T01:37:33;98769.78;;;19.19
51149;BMP280;37210;50.058;8.688;2023-08-01T01:40:01;98770.84;;;19.46
51149;BMP280;37210;50.058;8.688;2023-08-01T01:42:29;98750.66;;;19.28
51149;BMP280;37210;50.058;8.688;2023-08-01T01:44:56;98765.59;;;19.44
51149;BMP280;37210;50.058;8.688;2023-08-01T01:47:23;98751.81;;;19.53
51149;BMP280;37210;50.058;8.688;2023-08-01T01:49:51;98744.25;;;19.02
51149;BMP280;37210;50.058;8.688;2023-08-01T01:52:18;98728.41;;;19.00
51149;BMP280;37210;50.058;8.688;2023-08-01T01:54:47;98736.84;;;19.23
51149;BMP280;37210;50.058;8.688;2023-08-01T01:57:14;98739.75;;;19.34
51149;BMP280;37210;50.058;8.688;2023-08-01T01:59:41;98723.22;;;19.29
51149;BMP280;37210;50.058;8.688;2023-08-01T02:02:09;98702.53;;;19.05
51149;BMP280;37210;50.058;8.688;2023-08-01T02:04:36;98709.56;;;19.21
51149;BMP280;37210;50.058;8.688;2023-08-01T02:07:04;98647.84;;;19.04
51149;BMP280;37210;50.058;8.688;2023-08-01T02:09:32;98615.75;;;19.09
51149;BMP280;37210;50.058;8.688;2023-08-01T02:12:01;98636.41;;;19.18
51149;BMP280;37210;50.058;8.688;2023-08-01T02:14:30;98644.22;;;19.05
51149;BMP280;37210;50.058;8.688;2023-08-01T02:16:58;98630.34;;;19.16
51149;BMP280;37210;50.058;8.688;2023-08-01T02:19:25;98617.25;;;19.13
51149;BMP280;37210;50.058;8.688;2023-08-01T02:21:53;98623.13;;;19.04
51149;BMP280;37210;50.058;8.688;2023-08-01T02:24:20;98610.53;;;19.07
51149;BMP280;37210;50.058;8.688;2023-08-01T02:26:48;98600.22;;;19.17
51149;BMP280;37210;50.058;8.688;2023-08-01T02:29:18;98615.25;;;19.02
51149;BMP280;37210;50.058;8.688;2023-08-01T02:31:46;98592.47;;;19.14
51149;BMP280;37210;50.058;8.688;2023-08-01T02:34:13;98586.53;;;19.10
51149;BMP280;37210;50.058;8.688;2023-08-01T02:36:40;98572.38;;;19.40
51149;BMP280;37210;50.058;8.688;2023-08-01T02:39:08;98559.63;;;19.02
51149;BMP280;37210;50.058;8.688;2023-08-01T02:41:35;98534.47;;;18.95
51149;BMP280;37210;50.058;8.688;2023-08-01T02:44:03;98533.22;;;18.87
51149;BMP280;37210;50.058;8.688;2023-08-01T02:46:32;98528.19;;;18.96
51149;BMP280;37210;50.058;8.688;2023-08-01T02:48:59;98537.22;;;18.94
51149;BMP280;37210;50.058;8.688;2023-08-01T02:51:26;98548.63;;;18.94
51149;BMP280;37210;50.058;8.688;2023-08-01T02:53:53;98541.25;;;18.85
51149;BMP280;37210;50.058;8.688;2023-08-01T02:56:21;98560.09;;;18.95
51149;BMP280;37210;50.058;8.688;2023-08-01T02:58:48;98543.38;;;19.08
51149;BMP280;37210;50.058;8.688;2023-08-01T03:01:17;98530.56;;;19.01
51149;BMP280;37210;50.058;8.688;2023-08-01T03:03:46;98532.47;;;18.99
51149;BMP280;37210;50.058;8.688;2023-08-01T03:06:14;98526.69;;;18.92
51149;BMP280;37210;50.058;8.688;2023-08-01T03:08:41;98513.06;;;18.84
51149;BMP280;37210;50.058;8.688;2023-08-01T03:11:09;98512.88;;;19.01
51149;BMP280;37210;50.058;8.688;2023-08-01T03:13:36;98524.88;;;19.07
51149;BMP280;37210;50.058;8.688;2023-08-01T03:16:03;98522.63;;;19.15
51149;BMP280;37210;50.058;8.688;2023-08-01T03:18:31;98508.91;;;18.94
51149;BMP280;37210;50.058;8.688;2023-08-01T03:21:01;98528.13;;;18.98
51149;BMP280;37210;50.058;8.688;2023-08-01T03:23:30;98522.44;;;18.90
51149;BMP280;37210;50.058;8.688;2023-08-01T03:25:57;98525.97;;;19.04
51149;BMP280;37210;50.058;8.688;2023-08-01T03:28:26;98524.72;;;18.96
51149;BMP280;37210;50.058;8.688;2023-08-01T03:30:53;98528.41;;;18.93
51149;BMP280;37210;50.058;8.688;2023-08-01T03:33:21;98515.72;;;18.98
51149;BMP280;37210;50.058;8.688;2023-08-01T03:35:48;98523.66;;;18.98
51149;BMP280;37210;50.058;8.688;2023-08-01T03:38:17;98529.31;;;18.92
51149;BMP280;37210;50.058;8.688;2023-08-01T03:40:44;98509.84;;;18.93
51149;BMP280;37210;50.058;8.688;2023-08-01T03:43:12;98523.31;;;19.04
51149;BMP280;37210;50.058;8.688;2023-08-01T03:45:40;98502.09;;;18.90
51149;BMP280;37210;50.058;8.688;2023-08-01T03:48:07;98533.91;;;19.04
51149;BMP280;37210;50.058;8.688;2023-08-01T03:50:34;98522.44;;;19.18
51149;BMP280;37210;50.058;8.688;2023-08-01T03:53:02;98524.16;;;19.19
51149;BMP280;37210;50.058;8.688;2023-08-01T03:55:30;98531.44;;;19.01
51149;BMP280;37210;50.058;8.688;2023-08-01T03:57:58;98528.50;;;19.06
51149;BMP280;37210;50.058;8.688;2023-08-01T04:00:25;98530.66;;;18.99
51149;BMP280;37210;50.058;8.688;2023-08-01T04:02:58;98508.91;;;19.08
51149;BMP280;37210;50.058;8.688;2023-08-01T04:05:25;98505.78;;;19.02
51149;BMP280;37210;50.058;8.688;2023-08-01T04:07:53;98510.13;;;19.03
51149;BMP280;37210;50.058;8.688;2023-08-01T04:10:21;98510.81;;;19.06
51149;BMP280;37210;50.058;8.688;2023-08-01T04:12:50;98498.22;;;19.10
51149;BMP280;37210;50.058;8.688;2023-08-01T04:15:17;98502.56;;;18.97
51149;BMP280;37210;50.058;8.688;2023-08-01T04:17:45;98498.22;;;19.10
51149;BMP280;37210;50.058;8.688;2023-08-01T04:20:12;98484.22;;;18.94
51149;BMP280;37210;50.058;8.688;2023-08-01T04:22:39;98480.31;;;19.13
51149;BMP280;37210;50.058;8.688;2023-08-01T04:25:07;98464.53;;;18.98
51149;BMP280;37210;50.058;8.688;2023-08-01T04:27:35;98474.56;;;18.93
51149;BMP280;37210;50.058;8.688;2023-08-01T04:30:05;98483.81;;;18.86
51149;BMP280;37210;50.058;8.688;2023-08-01T04:32:33;98491.22;;;18.95
51149;BMP280;37210;50.058;8.688;2023-08-01T04:35:00;98505.22;;;18.83
51149;BMP280;37210;50.058;8.688;2023-08-01T04:37:28;98494.25;;;18.89
51149;BMP280;37210;50.058;8.688;2023-08-01T04:39:55;98498.97;;;18.98
51149;BMP280;37210;50.058;8.688;2023-08-01T04:42:22;98510.25;;;18.87
51149;BMP280;37210;50.058;8.688;2023-08-01T04:44:50;98491.22;;;18.95
51149;BMP280;37210;50.058;8.688;2023-08-01T04:47:19;98456.78;;;18.95
51149;BMP280;37210;50.058;8.688;2023-08-01T04:49:47;98482.44;;;19.08
51149;BMP280;37210;50.058;8.688;2023-08-01T04:52:14;98478.06;;;19.07
51149;BMP280;37210;50.058;8.688;2023-08-01T04:54:42;98487.25;;;19.16
51149;BMP280;37210;50.058;8.688;2023-08-01T04:57:09;98498.22;;;18.96
51149;BMP280;37210;50.058;8.688;2023-08-01T04:59:36;98473.50;;;19.09
51149;BMP280;37210;50.058;8.688;2023-08-01T05:02:04;98466.22;;;18.99
51149;BMP280;37210;50.058;8.688;2023-08-01T05:04:33;98440.69;;;18.84
51149;BMP280;37210;50.058;8.688;2023-08-01T05:07:04;98445.25;;;18.96
51149;BMP280;37210;50.058;8.688;2023-08-01T05:09:32;98447.22;;;18.92
51149;BMP280;37210;50.058;8.688;2023-08-01T05:11:59;98430.38;;;19.07
51149;BMP280;37210;50.058;8.688;2023-08-01T05:14:26;98428.84;;;19.17
51149;BMP280;37210;50.058;8.688;2023-08-01T05:16:54;98424.22;;;19.21
51149;BMP280;37210;50.058;8.688;2023-08-01T05:19:21;98423.47;;;19.19
51149;BMP280;37210;50.058;8.688;2023-08-01T05:21:50;98435.09;;;19.02
51149;BMP280;37210;50.058;8.688;2023-08-01T05:24:17;98438.56;;;19.17
51149;BMP280;37210;50.058;8.688;2023-08-01T05:26:45;98444.25;;;19.25
51149;BMP280;37210;50.058;8.688;2023-08-01T05:29:12;98458.94;;;19.17
51149;BMP280;37210;50.058;8.688;2023-08-01T05:31:39;98466.41;;;19.10
51149;BMP280;37210;50.058;8.688;2023-08-01T05:34:07;98477.03;;;19.10
51149;BMP280;37210;50.058;8.688;2023-08-01T05:36:34;98476.56;;;19.03
51149;BMP280;37210;50.058;8.688;2023-08-01T05:39:04;98474.47;;;19.08
51149;BMP280;37210;50.058;8.688;2023-08-01T05:41:31;98454.41;;;18.90
51149;BMP280;37210;50.058;8.688;2023-08-01T05:43:59;98456.59;;;18.98
51149;BMP280;37210;50.058;8.688;2023-08-01T05:46:26;98469.53;;;19.02
51149;BMP280;37210;50.058;8.688;2023-08-01T05:48:53;98477.09;;;18.94
51149;BMP280;37210;50.058;8.688;2023-08-01T05:51:21;98484.88;;;18.83
51149;BMP280;37210;50.058;8.688;2023-08-01T05:53:48;98469.00;;;18.83
51149;BMP280;37210;50.058;8.688;2023-08-01T05:56:17;98479.00;;;18.78
51149;BMP280;37210;50.058;8.688;2023-08-01T05:58:44;98474.56;;;18.93
51149;BMP280;37210;50.058;8.688;2023-08-01T06:01:12;98469.75;;;18.85
51149;BMP280;37210;50.058;8.688;2023-08-01T06:03:39;98457.50;;;18.55
51149;BMP280;37210;50.058;8.688;2023-08-01T06:06:06;98436.69;;;18.49
51149;BMP280;37210;50.058;8.688;2023-08-01T06:08:34;98395.25;;;18.33
51149;BMP280;37210;50.058;8.688;2023-08-01T06:11:01;98454.81;;;18.41
51149;BMP280;37210;50.058;8.688;2023-08-01T06:13:30;98469.97;;;18.53
51149;BMP280;37210;50.058;8.688;2023-08-01T06:15:58;98463.94;;;18.51
51149;BMP280;37210;50.058;8.688;2023-08-01T06:18:25;98459.00;;;18.59
51149;BMP280;37210;50.058;8.688;2023-08-01T06:20:52;98478.69;;;18.55
51149;BMP280;37210;50.058;8.688;2023-08-01T06:23:20;98480.50;;;18.68
51149;BMP280;37210;50.058;8.688;2023-08-01T06:25:54;98487.03;;;18.63
51149;BMP280;37210;50.058;8.688;2023-08-01T06:28:21;98492.13;;;18.52
51149;BMP280;37210;50.058;8.688;2023-08-01T06:30:50;98506.50;;;18.76
51149;BMP280;37210;50.058;8.688;2023-08-01T06:36:04;98520.88;;;18.72
51149;BMP280;37210;50.058;8.688;2023-08-01T06:38:32;98527.78;;;18.60
51149;BMP280;37210;50.058;8.688;2023-08-01T06:40:59;98529.31;;;18.78
51149;BMP280;37210;50.058;8.688;2023-08-01T06:43:27;98515.31;;;18.76
51149;BMP280;37210;50.058;8.688;2023-08-01T06:45:55;98554.78;;;18.95
51149;BMP280;37210;50.058;8.688;2023-08-01T06:48:23;98652.84;;;19.09
51149;BMP280;37210;50.058;8.688;2023-08-01T06:50:50;98649.63;;;19.04
51149;BMP280;37210;50.058;8.688;2023-08-01T06:53:18;98672.84;;;19.14
51149;BMP280;37210;50.058;8.688;2023-08-01T06:55:45;98666.78;;;19.12
51149;BMP280;37210;50.058;8.688;2023-08-01T06:58:13;98677.00;;;19.19
51149;BMP280;37210;50.058;8.688;2023-08-01T07:00:40;98672.28;;;19.24
51149;BMP280;37210;50.058;8.688;2023-08-01T07:03:09;98676.13;;;19.34
51149;BMP280;37210;50.058;8.688;2023-08-01T07:05:37;98672.16;;;19.41
51149;BMP280;37210;50.058;8.688;2023-08-01T07:08:04;98676.69;;;19.53
51149;BMP280;37210;50.058;8.688;2023-08-01T07:10:34;98672.91;;;19.57
51149;BMP280;37210;50.058;8.688;2023-08-01T07:13:01;98679.50;;;19.79
51149;BMP280;37210;50.058;8.688;2023-08-01T07:15:30;98682.22;;;19.92
51149;BMP280;37210;50.058;8.688;2023-08-01T07:17:57;98671.50;;;19.93
51149;BMP280;37210;50.058;8.688;2023-08-01T07:20:26;98668.94;;;20.06
51149;BMP280;37210;50.058;8.688;2023-08-01T07:22:53;98675.53;;;20.13
51149;BMP280;37210;50.058;8.688;2023-08-01T07:25:21;98674.72;;;20.13
51149;BMP280;37210;50.058;8.688;2023-08-01T07:27:48;98678.03;;;20.16
51149;BMP280;37210;50.058;8.688;2023-08-01T07:30:15;98676.31;;;20.29
51149;BMP280;37210;50.058;8.688;2023-08-01T07:32:43;98659.81;;;20.24
51149;BMP280;37210;50.058;8.688;2023-08-01T07:35:10;98677.78;;;20.47
51149;BMP280;37210;50.058;8.688;2023-08-01T07:37:39;98662.91;;;20.45
51149;BMP280;37210;50.058;8.688;2023-08-01T07:40:07;98673.38;;;20.60
51149;BMP280;37210;50.058;8.688;2023-08-01T07:42:36;98677.97;;;20.58
51149;BMP280;37210;50.058;8.688;2023-08-01T07:45:04;98672.13;;;20.66
51149;BMP280;37210;50.058;8.688;2023-08-01T07:47:33;98677.59;;;20.77
51149;BMP280;37210;50.058;8.688;2023-08-01T07:50:00;98642.44;;;20.59
51149;BMP280;37210;50.058;8.688;2023-08-01T07:52:27;98687.59;;;20.86
51149;BMP280;37210;50.058;8.688;2023-08-01T07:54:56;98684.75;;;20.89
51149;BMP280;37210;50.058;8.688;2023-08-01T07:57:24;98689.00;;;20.92
51149;BMP280;37210;50.058;8.688;2023-08-01T07:59:51;98691.25;;;20.98
51149;BMP280;37210;50.058;8.688;2023-08-01T08:02:20;98676.59;;;20.65
51149;BMP280;37210;50.058;8.688;2023-08-01T08:04:47;98692.38;;;21.08
51149;BMP280;37210;50.058;8.688;2023-08-01T08:07:14;98690.00;;;21.55
51149;BMP280;37210;50.058;8.688;2023-08-01T08:09:42;98693.50;;;22.06
51149;BMP280;37210;50.058;8.688;2023-08-01T08:12:10;98696.38;;;22.52
51149;BMP280;37210;50.058;8.688;2023-08-01T08:14:38;98688.66;;;22.96
51149;BMP280;37210;50.058;8.688;2023-08-01T08:17:05;98684.38;;;23.17
51149;BMP280;37210;50.058;8.688;2023-08-01T08:19:32;98691.44;;;23.64
51149;BMP280;37210;50.058;8.688;2023-08-01T08:22:00;98679.34;;;23.82
51149;BMP280;37210;50.058;8.688;2023-08-01T08:24:27;98678.75;;;24.23
51149;BMP280;37210;50.058;8.688;2023-08-01T08:26:55;98678.09;;;24.41
51149;BMP280;37210;50.058;8.688;2023-08-01T08:29:23;98666.63;;;24.61
51149;BMP280;37210;50.058;8.688;2023-08-01T08:31:51;98683.41;;;25.06
51149;BMP280;37210;50.058;8.688;2023-08-01T08:34:18;98660.38;;;25.15
51149;BMP280;37210;50.058;8.688;2023-08-01T08:36:46;98683.75;;;25.33
51149;BMP280;37210;50.058;8.688;2023-08-01T08:39:13;98684.19;;;25.50
51149;BMP280;37210;50.058;8.688;2023-08-01T08:41:45;98675.31;;;25.49
51149;BMP280;37210;50.058;8.688;2023-08-01T08:44:15;98687.63;;;25.82
51149;BMP280;37210;50.058;8.688;2023-08-01T08:46:48;98692.72;;;25.64
51149;BMP280;37210;50.058;8.688;2023-08-01T08:49:17;98694.88;;;25.70
51149;BMP280;37210;50.058;8.688;2023-08-01T08:51:48;98692.50;;;25.47
51149;BMP280;37210;50.058;8.688;2023-08-01T08:54:16;98675.63;;;25.56
51149;BMP280;37210;50.058;8.688;2023-08-01T08:56:44;98696.22;;;25.23
51149;BMP280;37210;50.058;8.688;2023-08-01T08:59:12;98691.88;;;25.43
51149;BMP280;37210;50.058;8.688;2023-08-01T09:01:39;98661.09;;;25.79
51149;BMP280;37210;50.058;8.688;2023-08-01T09:04:08;98685.75;;;26.03
51149;BMP280;37210;50.058;8.688;2023-08-01T09:06:40;98689.53;;;26.21
51149;BMP280;37210;50.058;8.688;2023-08-01T09:09:13;98696.78;;;25.59
51149;BMP280;37210;50.058;8.688;2023-08-01T09:11:44;98695.84;;;26.10
51149;BMP280;37210;50.058;8.688;2023-08-01T09:14:13;98700.88;;;26.34
51149;BMP280;37210;50.058;8.688;2023-08-01T09:16:41;98691.47;;;26.68
51149;BMP280;37210;50.058;8.688;2023-08-01T09:19:10;98686.69;;;26.62
51149;BMP280;37210;50.058;8.688;2023-08-01T09:21:39;98673.22;;;25.53
51149;BMP280;37210;50.058;8.688;2023-08-01T09:24:10;98696.69;;;26.11
51149;BMP280;37210;50.058;8.688;2023-08-01T09:26:39;98691.72;;;26.46
51149;BMP280;37210;50.058;8.688;2023-08-01T09:29:07;98691.63;;;26.67
51149;BMP280;37210;50.058;8.688;2023-08-01T09:31:35;98701.88;;;26.82
51149;BMP280;37210;50.058;8.688;2023-08-01T09:34:04;98696.66;;;27.10
51149;BMP280;37210;50.058;8.688;2023-08-01T09:36:34;98702.44;;;27.15
51149;BMP280;37210;50.058;8.688;2023-08-01T09:39:03;98657.53;;;27.26
51149;BMP280;37210;50.058;8.688;2023-08-01T09:41:31;98694.97;;;27.47
51149;BMP280;37210;50.058;8.688;2023-08-01T09:43:59;98680.47;;;27.77
51149;BMP280;37210;50.058;8.688;2023-08-01T09:46:26;98681.06;;;27.80
51149;BMP280;37210;50.058;8.688;2023-08-01T09:48:54;98683.78;;;28.17
51149;BMP280;37210;50.058;8.688;2023-08-01T09:51:21;98680.47;;;28.32
51149;BMP280;37210;50.058;8.688;2023-08-01T09:53:53;98681.75;;;28.56
51149;BMP280;37210;50.058;8.688;2023-08-01T09:56:22;98671.00;;;27.82
51149;BMP280;37210;50.058;8.688;2023-08-01T09:58:53;98678.72;;;28.14
51149;BMP280;37210;50.058;8.688;2023-08-01T10:01:23;98687.66;;;28.32
51149;BMP280;37210;50.058;8.688;2023-08-01T10:03:53;98690.34;;;27.95
51149;BMP280;37210;50.058;8.688;2023-08-01T10:06:22;98684.94;;;27.39
51149;BMP280;37210;50.058;8.688;2023-08-01T10:08:52;98705.41;;;27.02
51149;BMP280;37210;50.058;8.688;2023-08-01T10:11:21;98705.41;;;26.92
51149;BMP280;37210;50.058;8.688;2023-08-01T10:13:49;98712.16;;;26.77
51149;BMP280;37210;50.058;8.688;2023-08-01T10:16:16;98714.34;;;26.63
51149;BMP280;37210;50.058;8.688;2023-08-01T10:18:44;98699.22;;;26.52
51149;BMP280;37210;50.058;8.688;2023-08-01T10:21:13;98704.38;;;26.74
51149;BMP280;37210;50.058;8.688;2023-08-01T10:23:42;98704.91;;;26.68
51149;BMP280;37210;50.058;8.688;2023-08-01T10:26:13;98710.78;;;26.92
51149;BMP280;37210;50.058;8.688;2023-08-01T10:28:49;98710.50;;;26.16
51149;BMP280;37210;50.058;8.688;2023-08-01T10:31:18;98717.03;;;25.52
51149;BMP280;37210;50.058;8.688;2023-08-01T10:33:48;98716.06;;;25.53
51149;BMP280;37210;50.058;8.688;2023-08-01T10:36:17;98723.19;;;25.31
51149;BMP280;37210;50.058;8.688;2023-08-01T10:38:47;98719.28;;;25.35
51149;BMP280;37210;50.058;8.688;2023-08-01T10:41:22;98724.84;;;25.64
51149;BMP280;37210;50.058;8.688;2023-08-01T10:44:06;98719.03;;;26.00
51149;BMP280;37210;50.058;8.688;2023-08-01T10:46:48;98718.44;;;26.18
51149;BMP280;37210;50.058;8.688;2023-08-01T10:49:17;98719.34;;;26.07
51149;BMP280;37210;50.058;8.688;2023-08-01T10:51:46;98718.47;;;26.27
51149;BMP280;37210;50.058;8.688;2023-08-01T10:54:20;98722.16;;;25.85
51149;BMP280;37210;50.058;8.688;2023-08-01T10:56:51;98731.13;;;26.55
51149;BMP280;37210;50.058;8.688;2023-08-01T10:59:20;98710.22;;;26.99
51149;BMP280;37210;50.058;8.688;2023-08-01T11:01:50;98716.84;;;26.95
51149;BMP280;37210;50.058;8.688;2023-08-01T11:04:20;98722.34;;;26.44
51149;BMP280;37210;50.058;8.688;2023-08-01T11:06:50;98730.97;;;26.17
51149;BMP280;37210;50.058;8.688;2023-08-01T11:09:20;98740.94;;;26.36
51149;BMP280;37210;50.058;8.688;2023-08-01T11:11:51;98733.25;;;26.61
51149;BMP280;37210;50.058;8.688;2023-08-01T11:14:20;98737.13;;;26.38
51149;BMP280;37210;50.058;8.688;2023-08-01T11:16:49;98735.50;;;25.96
51149;BMP280;37210;50.058;8.688;2023-08-01T11:19:19;98727.13;;;25.89
51149;BMP280;37210;50.058;8.688;2023-08-01T11:21:47;98756.78;;;25.24
51149;BMP280;37210;50.058;8.688;2023-08-01T11:24:16;98757.97;;;25.31
51149;BMP280;37210;50.058;8.688;2023-08-01T11:26:46;98760.91;;;24.97
51149;BMP280;37210;50.058;8.688;2023-08-01T11:29:17;98759.59;;;25.55
51149;BMP280;37210;50.058;8.688;2023-08-01T11:31:53;98761.25;;;25.35
51149;BMP280;37210;50.058;8.688;2023-08-01T11:34:22;98761.78;;;25.61
51149;BMP280;37210;50.058;8.688;2023-08-01T11:36:50;98739.81;;;25.46
51149;BMP280;37210;50.058;8.688;2023-08-01T11:39:18;98759.09;;;25.81
51149;BMP280;37210;50.058;8.688;2023-08-01T11:41:46;98757.25;;;26.02
51149;BMP280;37210;50.058;8.688;2023-08-01T11:44:13;98758.75;;;25.95
51149;BMP280;37210;50.058;8.688;2023-08-01T11:46:42;98755.13;;;26.27
51149;BMP280;37210;50.058;8.688;2023-08-01T11:49:14;98764.97;;;26.17
51149;BMP280;37210;50.058;8.688;2023-08-01T11:51:42;98759.56;;;25.66
51149;BMP280;37210;50.058;8.688;2023-08-01T11:54:12;98764.63;;;26.10
51149;BMP280;37210;50.058;8.688;2023-08-01T11:56:41;98763.72;;;26.00
51149;BMP280;37210;50.058;8.688;2023-08-01T11:59:10;98772.69;;;26.10
51149;BMP280;37210;50.058;8.688;2023-08-01T12:01:39;98769.34;;;26.18
51149;BMP280;37210;50.058;8.688;2023-08-01T12:04:08;98773.59;;;26.20
51149;BMP280;37210;50.058;8.688;2023-08-01T12:06:35;98762.06;;;26.29
51149;BMP280;37210;50.058;8.688;2023-08-01T12:09:09;98776.56;;;26.27
51149;BMP280;37210;50.058;8.688;2023-08-01T12:11:39;98769.38;;;26.06
51149;BMP280;37210;50.058;8.688;2023-08-01T12:14:08;98774.81;;;26.37
51149;BMP280;37210;50.058;8.688;2023-08-01T12:16:37;98760.97;;;26.41
51149;BMP280;37210;50.058;8.688;2023-08-01T12:19:07;98767.81;;;26.25
51149;BMP280;37210;50.058;8.688;2023-08-01T12:21:35;98775.63;;;26.67
51149;BMP280;37210;50.058;8.688;2023-08-01T12:24:04;98775.09;;;26.13
51149;BMP280;37210;50.058;8.688;2023-08-01T12:26:31;98777.44;;;26.67
51149;BMP280;37210;50.058;8.688;2023-08-01T12:28:59;98764.38;;;26.43
51149;BMP280;37210;50.058;8.688;2023-08-01T12:31:26;98774.38;;;26.41
51149;BMP280;37210;50.058;8.688;2023-08-01T12:33:54;98777.72;;;26.24
51149;BMP280;37210;50.058;8.688;2023-08-01T12:36:22;98777.94;;;26.11
51149;BMP280;37210;50.058;8.688;2023-08-01T12:38:50;98790.66;;;25.78
51149;BMP280;37210;50.058;8.688;2023-08-01T12:41:17;98786.59;;;25.63
51149;BMP280;37210;50.058;8.688;2023-08-01T12:43:44;98789.06;;;25.96
51149;BMP280;37210;50.058;8.688;2023-08-01T12:46:12;98791.03;;;25.53
51149;BMP280;37210;50.058;8.688;2023-08-01T12:48:39;98794.44;;;25.75
51149;BMP280;37210;50.058;8.688;2023-08-01T12:51:07;98805.81;;;25.68
51149;BMP280;37210;50.058;8.688;2023-08-01T12:53:36;98810.59;;;25.10
51149;BMP280;37210;50.058;8.688;2023-08-01T12:56:08;98801.06;;;24.64
51149;BMP280;37210;50.058;8.688;2023-08-01T12:58:35;98814.56;;;23.94
51149;BMP280;37210;50.058;8.688;2023-08-01T13:01:03;98834.41;;;24.14
51149;BMP280;37210;50.058;8.688;2023-08-01T13:03:31;98831.16;;;24.21
51149;BMP280;37210;50.058;8.688;2023-08-01T13:05:58;98826.69;;;23.98
51149;BMP280;37210;50.058;8.688;2023-08-01T13:08:25;98817.13;;;23.37
51149;BMP280;37210;50.058;8.688;2023-08-01T13:10:56;98818.72;;;23.74
51149;BMP280;37210;50.058;8.688;2023-08-01T13:13:25;98808.59;;;24.02
51149;BMP280;37210;50.058;8.688;2023-08-01T13:15:52;98821.56;;;24.52
51149;BMP280;37210;50.058;8.688;2023-08-01T13:18:20;98820.25;;;24.46
51149;BMP280;37210;50.058;8.688;2023-08-01T13:20:47;98817.16;;;24.18
51149;BMP280;37210;50.058;8.688;2023-08-01T13:23:14;98810.28;;;24.37
51149;BMP280;37210;50.058;8.688;2023-08-01T13:25:42;98816.81;;;24.11
51149;BMP280;37210;50.058;8.688;2023-08-01T13:28:13;98809.91;;;24.31
51149;BMP280;37210;50.058;8.688;2023-08-01T13:30:41;98797.03;;;24.69
51149;BMP280;37210;50.058;8.688;2023-08-01T13:33:08;98797.78;;;24.82
51149;BMP280;37210;50.058;8.688;2023-08-01T13:35:35;98801.78;;;24.77
51149;BMP280;37210;50.058;8.688;2023-08-01T13:38:02;98794.25;;;24.82
51149;BMP280;37210;50.058;8.688;2023-08-01T13:40:31;98795.59;;;24.76
51149;BMP280;37210;50.058;8.688;2023-08-01T13:42:58;98797.88;;;24.70
51149;BMP280;37210;50.058;8.688;2023-08-01T13:45:29;98795.53;;;24.98
51149;BMP280;37210;50.058;8.688;2023-08-01T13:47:57;98803.00;;;25.26
51149;BMP280;37210;50.058;8.688;2023-08-01T13:50:25;98793.78;;;25.19
51149;BMP280;37210;50.058;8.688;2023-08-01T13:52:55;98811.16;;;24.82
51149;BMP280;37210;50.058;8.688;2023-08-01T13:55:22;98834.19;;;24.72
51149;BMP280;37210;50.058;8.688;2023-08-01T13:57:50;98857.59;;;24.24
51149;BMP280;37210;50.058;8.688;2023-08-01T14:00:17;98887.44;;;23.49
51149;BMP280;37210;50.058;8.688;2023-08-01T14:02:49;98856.78;;;23.89
51149;BMP280;37210;50.058;8.688;2023-08-01T14:05:17;98856.56;;;23.92
51149;BMP280;37210;50.058;8.688;2023-08-01T14:07:44;98860.91;;;23.93
51149;BMP280;37210;50.058;8.688;2023-08-01T14:10:12;98859.78;;;23.84
51149;BMP280;37210;50.058;8.688;2023-08-01T14:12:40;98870.19;;;23.76
51149;BMP280;37210;50.058;8.688;2023-08-01T14:15:08;98867.72;;;23.39
51149;BMP280;37210;50.058;8.688;2023-08-01T14:17:36;98861.56;;;23.38